createdAt,value
2019-04-28T00:00:31.835Z,1.72
2019-04-28T00:02:36.925Z,1.45
2019-04-28T00:04:42.015Z,1.62
2019-04-28T00:06:47.100Z,1.55
2019-04-28T00:08:52.147Z,3.00
2019-04-28T00:10:57.167Z,1.12
2019-04-28T00:13:02.227Z,1.35
2019-04-28T00:15:07.387Z,3.47
2019-04-28T00:17:12.420Z,2.47
2019-04-28T00:19:17.724Z,1.65
2019-04-28T00:21:29.306Z,2.45
2019-04-28T00:23:47.246Z,4.92
2019-04-28T00:26:04.306Z,5.17
2019-04-28T00:28:09.344Z,3.30
2019-04-28T00:30:14.587Z,3.15
2019-04-28T00:32:20.969Z,2.08
2019-04-28T00:34:26.149Z,1.40
2019-04-28T00:36:31.469Z,3.08
2019-04-28T00:38:36.576Z,4.08
2019-04-28T00:40:41.603Z,1.87
2019-04-28T00:42:46.724Z,4.22
2019-04-28T00:44:51.908Z,3.98
2019-04-28T00:46:57.129Z,3.27
2019-04-28T00:49:02.283Z,1.70
2019-04-28T00:51:07.421Z,2.62
2019-04-28T00:53:12.544Z,5.65
2019-04-28T00:55:17.603Z,3.90
2019-04-28T00:57:22.739Z,2.42
2019-04-28T00:59:27.792Z,3.55
2019-04-28T01:01:55.030Z,2.98
2019-04-28T01:04:01.969Z,5.35
2019-04-28T01:06:07.096Z,2.45
2019-04-28T01:08:12.228Z,2.25
2019-04-28T01:10:17.243Z,2.20
2019-04-28T01:12:22.296Z,3.10
2019-04-28T01:14:27.324Z,3.27
2019-04-28T01:16:40.058Z,2.37
2019-04-28T01:18:54.052Z,3.72
2019-04-28T01:20:59.643Z,1.65
2019-04-28T01:23:04.959Z,3.22
2019-04-28T01:25:10.677Z,4.22
2019-04-28T01:27:50.630Z,1.37
2019-04-28T01:30:06.195Z,2.70
2019-04-28T01:32:20.446Z,1.98
2019-04-28T01:34:25.985Z,3.42
2019-04-28T01:36:31.323Z,2.50
2019-04-28T01:38:36.363Z,2.40
2019-04-28T01:40:41.446Z,3.17
2019-04-28T01:42:46.482Z,2.47
2019-04-28T01:44:51.900Z,1.27
2019-04-28T01:46:56.931Z,3.60
2019-04-28T01:49:01.962Z,1.77
2019-04-28T01:51:09.530Z,2.10
2019-04-28T01:53:14.866Z,2.15
2019-04-28T01:55:20.078Z,2.37
2019-04-28T01:57:25.176Z,3.05
2019-04-28T01:59:30.436Z,1.60
2019-04-28T02:01:35.517Z,2.90
2019-04-28T02:03:40.767Z,3.33
2019-04-28T02:05:46.776Z,2.05
2019-04-28T02:07:51.795Z,2.37
2019-04-28T02:09:56.850Z,1.35
2019-04-28T02:12:02.963Z,4.30
2019-04-28T02:14:09.636Z,2.55
2019-04-28T02:16:14.713Z,3.27
2019-04-28T02:18:20.051Z,2.52
2019-04-28T02:20:25.224Z,2.90
2019-04-28T02:22:35.431Z,1.92
2019-04-28T02:24:40.629Z,1.95
2019-04-28T02:26:45.743Z,2.83
2019-04-28T02:28:50.816Z,3.20
2019-04-28T02:30:55.884Z,1.35
2019-04-28T02:33:01.839Z,1.62
2019-04-28T02:35:10.423Z,1.22
2019-04-28T02:37:14.599Z,2.35
2019-04-28T02:39:20.661Z,1.25
2019-04-28T02:41:25.938Z,2.20
2019-04-28T02:43:31.027Z,4.75
2019-04-28T02:45:36.367Z,1.87
2019-04-28T02:47:42.266Z,3.12
2019-04-28T02:50:06.415Z,1.82
2019-04-28T02:52:20.639Z,5.20
2019-04-28T02:54:26.148Z,1.90
2019-04-28T02:56:31.615Z,3.33
2019-04-28T02:58:36.670Z,2.08
2019-04-28T03:01:00.442Z,2.85
2019-04-28T03:02:51.102Z,1.40
2019-04-28T03:04:55.233Z,3.08
2019-04-28T03:07:01.308Z,2.33
2019-04-28T03:09:07.252Z,2.15
2019-04-28T03:11:12.379Z,3.42
2019-04-28T03:13:17.439Z,2.90
2019-04-28T03:15:22.543Z,2.02
2019-04-28T03:17:31.080Z,3.12
2019-04-28T03:19:35.494Z,2.33
2019-04-28T03:21:41.632Z,1.25
2019-04-28T03:23:46.852Z,2.47
2019-04-28T03:25:58.255Z,1.77
2019-04-28T03:28:30.759Z,4.28
2019-04-28T03:30:54.361Z,2.75
2019-04-28T03:33:10.837Z,1.20
2019-04-28T03:35:07.268Z,3.42
2019-04-28T03:37:12.300Z,1.47
2019-04-28T03:39:17.354Z,2.50
2019-04-28T03:41:22.390Z,3.27
2019-04-28T03:43:27.420Z,2.27
2019-04-28T03:45:40.764Z,2.45
2019-04-28T03:47:44.751Z,1.35
2019-04-28T03:49:50.471Z,3.08
2019-04-28T03:51:55.959Z,2.62
2019-04-28T03:54:02.955Z,2.40
2019-04-28T03:56:07.802Z,1.70
2019-04-28T03:58:12.928Z,2.35
2019-04-28T04:00:18.056Z,2.05
2019-04-28T04:02:23.870Z,2.55
2019-04-28T04:04:29.063Z,2.15
2019-04-28T04:06:34.176Z,1.65
2019-04-28T04:08:40.764Z,3.75
2019-04-28T04:11:05.129Z,2.30
2019-04-28T04:13:33.895Z,1.95
2019-04-28T04:15:52.706Z,2.22
2019-04-28T04:18:07.026Z,1.37
2019-04-28T04:20:16.751Z,1.30
2019-04-28T04:22:21.882Z,2.05
2019-04-28T04:24:26.924Z,1.67
2019-04-28T04:26:33.525Z,3.10
2019-04-28T04:28:41.379Z,3.02
2019-04-28T04:30:45.713Z,2.83
2019-04-28T04:32:50.833Z,1.42
2019-04-28T04:34:55.928Z,2.50
2019-04-28T04:37:00.988Z,2.05
2019-04-28T04:39:07.439Z,2.77
2019-04-28T04:41:12.481Z,2.35
2019-04-28T04:43:17.552Z,3.17
2019-04-28T04:45:22.590Z,1.10
2019-04-28T04:47:32.435Z,3.15
2019-04-28T04:49:34.402Z,3.22
2019-04-28T04:51:43.364Z,2.65
2019-04-28T04:53:46.231Z,2.77
2019-04-28T04:55:52.740Z,1.45
2019-04-28T04:57:57.825Z,0.90
2019-04-28T05:00:04.539Z,2.87
2019-04-28T05:02:32.205Z,0.93
2019-04-28T05:04:43.619Z,1.85
2019-04-28T05:06:49.688Z,2.77
2019-04-28T05:08:54.771Z,3.02
2019-04-28T05:11:00.086Z,5.47
2019-04-28T05:13:05.236Z,2.62
2019-04-28T05:15:10.507Z,0.75
2019-04-28T05:17:15.693Z,1.82
2019-04-28T05:19:20.732Z,2.83
2019-04-28T05:21:25.747Z,2.10
2019-04-28T05:23:40.015Z,2.55
2019-04-28T05:25:45.105Z,2.45
2019-04-28T05:27:50.143Z,1.45
2019-04-28T05:29:56.748Z,1.80
2019-04-28T05:32:03.618Z,2.47
2019-04-28T05:34:09.956Z,3.42
2019-04-28T05:36:15.551Z,1.45
2019-04-28T05:38:20.580Z,1.70
2019-04-28T05:40:25.614Z,1.82
2019-04-28T05:42:30.638Z,2.80
2019-04-28T05:44:37.619Z,1.80
2019-04-28T05:46:42.471Z,1.67
2019-04-28T05:48:54.825Z,2.83
2019-04-28T05:51:04.233Z,2.72
2019-04-28T05:53:14.756Z,2.22
2019-04-28T05:55:23.806Z,3.25
2019-04-28T05:57:39.734Z,1.35
2019-04-28T05:59:56.209Z,3.25
2019-04-28T06:02:05.117Z,1.98
2019-04-28T06:04:11.250Z,1.65
2019-04-28T06:06:16.403Z,1.82
2019-04-28T06:08:36.590Z,1.20
2019-04-28T06:10:41.615Z,2.75
2019-04-28T06:12:46.662Z,1.75
2019-04-28T06:14:51.680Z,1.95
2019-04-28T06:16:56.721Z,2.30
2019-04-28T06:19:02.093Z,3.80
2019-04-28T06:21:07.133Z,2.60
2019-04-28T06:23:12.147Z,2.80
2019-04-28T06:25:17.189Z,2.55
2019-04-28T06:27:22.354Z,1.25
2019-04-28T06:29:27.416Z,2.10
2019-04-28T06:31:32.551Z,1.60
2019-04-28T06:33:37.586Z,1.65
2019-04-28T06:35:42.604Z,1.57
2019-04-28T06:37:47.992Z,1.00
2019-04-28T06:39:53.057Z,1.95
2019-04-28T06:41:58.096Z,1.12
2019-04-28T06:44:04.498Z,1.25
2019-04-28T06:46:09.581Z,1.17
2019-04-28T06:48:14.615Z,0.80
2019-04-28T06:50:19.646Z,1.35
2019-04-28T06:52:24.680Z,2.00
2019-04-28T06:54:29.710Z,2.20
2019-04-28T06:56:36.224Z,2.33
2019-04-28T06:58:41.289Z,1.87
2019-04-28T07:00:46.345Z,1.65
2019-04-28T07:02:51.723Z,1.42
2019-04-28T07:05:02.315Z,2.45
2019-04-28T07:07:03.538Z,1.47
2019-04-28T07:09:08.649Z,1.35
2019-04-28T07:11:13.631Z,2.52
2019-04-28T07:13:20.651Z,2.10
2019-04-28T07:15:25.432Z,1.57
2019-04-28T07:17:32.302Z,2.25
2019-04-28T07:19:37.337Z,1.22
2019-04-28T07:22:01.296Z,2.22
2019-04-28T07:24:07.413Z,2.33
2019-04-28T07:26:12.447Z,1.15
2019-04-28T07:28:19.038Z,4.03
2019-04-28T07:30:25.223Z,1.20
2019-04-28T07:32:30.259Z,2.52
2019-04-28T07:34:35.299Z,2.62
2019-04-28T07:36:40.341Z,2.62
2019-04-28T07:38:45.357Z,2.72
2019-04-28T07:40:50.397Z,2.02
2019-04-28T07:42:55.419Z,1.37
2019-04-28T07:45:02.255Z,3.75
2019-04-28T07:47:08.621Z,1.02
2019-04-28T07:49:13.663Z,1.55
2019-04-28T07:51:20.591Z,1.85
2019-04-28T07:53:31.295Z,2.30
2019-04-28T07:55:36.363Z,3.05
2019-04-28T07:57:41.409Z,1.80
2019-04-28T07:59:46.471Z,1.30
2019-04-28T08:01:51.553Z,2.72
2019-04-28T08:03:57.623Z,3.15
2019-04-28T08:06:02.795Z,1.27
2019-04-28T08:08:08.792Z,1.72
2019-04-28T08:10:13.837Z,2.15
2019-04-28T08:12:18.856Z,2.77
2019-04-28T08:14:23.901Z,3.02
2019-04-28T08:16:28.919Z,2.12
2019-04-28T08:18:33.965Z,4.17
2019-04-28T08:20:39.008Z,2.00
2019-04-28T08:22:44.399Z,1.52
2019-04-28T08:24:49.436Z,3.00
2019-04-28T08:26:54.601Z,3.22
2019-04-28T08:28:59.647Z,1.60
2019-04-28T08:31:06.267Z,2.75
2019-04-28T08:33:43.698Z,2.70
2019-04-28T08:35:48.841Z,3.10
2019-04-28T08:37:53.876Z,2.08
2019-04-28T08:39:58.891Z,1.82
2019-04-28T08:42:03.968Z,3.52
2019-04-28T08:44:08.988Z,2.70
2019-04-28T08:46:14.036Z,4.70
2019-04-28T08:48:20.851Z,3.55
2019-04-28T08:50:25.888Z,2.95
2019-04-28T08:52:30.929Z,3.65
2019-04-28T08:54:35.951Z,3.67
2019-04-28T08:56:41.005Z,3.35
2019-04-28T08:58:46.060Z,2.75
2019-04-28T09:00:51.116Z,5.40
2019-04-28T09:02:56.180Z,3.67
2019-04-28T09:05:01.244Z,2.95
2019-04-28T09:07:06.365Z,3.90
2019-04-28T09:09:15.033Z,3.17
2019-04-28T09:11:20.058Z,5.67
2019-04-28T09:13:25.128Z,5.35
2019-04-28T09:15:30.163Z,4.72
2019-04-28T09:17:35.229Z,4.70
2019-04-28T09:19:42.408Z,4.37
2019-04-28T09:21:47.042Z,6.12
2019-04-28T09:23:52.085Z,7.20
2019-04-28T09:25:57.386Z,6.83
2019-04-28T09:28:02.416Z,6.25
2019-04-28T09:30:07.499Z,5.53
2019-04-28T09:32:12.538Z,7.10
2019-04-28T09:34:27.795Z,7.10
2019-04-28T09:36:24.301Z,8.35
2019-04-28T09:38:29.342Z,6.92
2019-04-28T09:40:34.395Z,8.65
2019-04-28T09:43:07.543Z,7.03
2019-04-28T09:45:31.515Z,5.67
2019-04-28T09:47:36.565Z,7.78
2019-04-28T09:49:41.587Z,6.62
2019-04-28T09:51:46.623Z,6.33
2019-04-28T09:53:51.732Z,8.28
2019-04-28T09:55:56.755Z,5.75
2019-04-28T09:58:01.775Z,7.33
2019-04-28T10:00:07.431Z,7.03
2019-04-28T10:02:12.570Z,7.08
2019-04-28T10:04:17.765Z,5.20
2019-04-28T10:06:22.798Z,6.05
2019-04-28T10:08:27.844Z,6.75
2019-04-28T10:10:33.014Z,6.28
2019-04-28T10:12:38.078Z,7.72
2019-04-28T10:14:43.101Z,10.75
2019-04-28T10:16:48.157Z,9.23
2019-04-28T10:18:53.175Z,7.60
2019-04-28T10:20:58.275Z,10.00
2019-04-28T10:23:03.377Z,9.88
2019-04-28T10:25:08.642Z,10.18
2019-04-28T10:27:13.759Z,7.92
2019-04-28T10:29:18.780Z,11.60
2019-04-28T10:31:23.938Z,8.30
2019-04-28T10:33:28.961Z,11.15
2019-04-28T10:35:34.009Z,12.98
2019-04-28T10:37:39.059Z,11.05
2019-04-28T10:39:55.745Z,13.78
2019-04-28T10:42:00.805Z,12.47
2019-04-28T10:44:08.547Z,13.28
2019-04-28T10:46:12.702Z,11.50
2019-04-28T10:48:17.733Z,13.68
2019-04-28T10:50:22.788Z,12.78
2019-04-28T10:52:27.878Z,14.40
2019-04-28T10:54:32.990Z,17.23
2019-04-28T10:56:38.116Z,13.80
2019-04-28T10:58:45.101Z,15.35
2019-04-28T11:00:50.152Z,15.65
2019-04-28T11:02:55.201Z,15.18
2019-04-28T11:05:08.719Z,15.98
2019-04-28T11:07:14.295Z,15.88
2019-04-28T11:09:31.383Z,19.77
2019-04-28T11:11:36.509Z,16.62
2019-04-28T11:13:41.618Z,17.90
2019-04-28T11:15:46.678Z,19.50
2019-04-28T11:17:51.738Z,18.82
2019-04-28T11:19:56.800Z,16.87
2019-04-28T11:22:01.850Z,18.07
2019-04-28T11:24:08.138Z,17.75
2019-04-28T11:26:13.195Z,19.42
2019-04-28T11:28:18.296Z,18.45
2019-04-28T11:30:24.353Z,15.83
2019-04-28T11:32:29.441Z,17.48
2019-04-28T11:34:44.974Z,19.42
2019-04-28T11:36:49.996Z,16.55
2019-04-28T11:38:55.047Z,17.70
2019-04-28T11:41:00.074Z,15.43
2019-04-28T11:43:05.117Z,16.10
2019-04-28T11:45:10.204Z,17.62
2019-04-28T11:47:17.661Z,19.35
2019-04-28T11:49:22.700Z,16.07
2019-04-28T11:51:27.877Z,18.27
2019-04-28T11:53:35.128Z,15.28
2019-04-28T11:55:40.163Z,15.93
2019-04-28T11:57:45.208Z,13.28
2019-04-28T11:59:50.231Z,17.15
2019-04-28T12:01:55.476Z,15.75
2019-04-28T12:04:02.669Z,16.17
2019-04-28T12:06:07.732Z,14.10
2019-04-28T12:08:12.821Z,14.63
2019-04-28T12:10:22.096Z,13.75
2019-04-28T12:12:48.657Z,14.28
2019-04-28T12:15:00.801Z,14.05
2019-04-28T12:17:23.488Z,15.00
2019-04-28T12:19:34.982Z,14.33
2019-04-28T12:21:40.042Z,15.38
2019-04-28T12:23:45.084Z,13.68
2019-04-28T12:25:50.152Z,15.50
2019-04-28T12:27:55.212Z,15.03
2019-04-28T12:30:00.653Z,13.13
2019-04-28T12:32:05.721Z,15.48
2019-04-28T12:34:10.745Z,12.50
2019-04-28T12:36:15.784Z,14.65
2019-04-28T12:38:20.830Z,12.75
2019-04-28T12:40:25.888Z,13.13
2019-04-28T12:42:31.029Z,15.18
2019-04-28T12:44:37.049Z,11.68
2019-04-28T12:46:42.131Z,12.53
2019-04-28T12:48:48.187Z,12.03
2019-04-28T12:50:53.315Z,11.75
2019-04-28T12:52:58.327Z,11.73
2019-04-28T12:55:04.347Z,13.62
2019-04-28T12:57:09.402Z,12.68
2019-04-28T12:59:19.850Z,12.13
2019-04-28T13:01:43.841Z,12.78
2019-04-28T13:04:07.482Z,13.00
2019-04-28T13:06:14.867Z,12.75
2019-04-28T13:08:20.908Z,10.13
2019-04-28T13:10:25.959Z,14.20
2019-04-28T13:12:30.973Z,11.95
2019-04-28T13:14:36.111Z,11.65
2019-04-28T13:16:41.129Z,11.48
2019-04-28T13:18:46.191Z,10.78
2019-04-28T13:20:51.425Z,10.35
2019-04-28T13:22:56.466Z,9.30
2019-04-28T13:25:02.612Z,10.40
2019-04-28T13:27:10.360Z,9.58
2019-04-28T13:29:15.417Z,9.63
2019-04-28T13:31:20.534Z,11.55
2019-04-28T13:33:25.611Z,11.35
2019-04-28T13:35:30.706Z,10.25
2019-04-28T13:37:36.057Z,8.68
2019-04-28T13:39:46.957Z,10.10
2019-04-28T13:41:51.976Z,8.83
2019-04-28T13:43:57.017Z,10.90
2019-04-28T13:46:02.040Z,10.18
2019-04-28T13:48:07.145Z,10.58
2019-04-28T13:50:31.421Z,10.03
2019-04-28T13:52:37.532Z,8.10
2019-04-28T13:54:42.555Z,10.03
2019-04-28T13:56:47.625Z,9.13
2019-04-28T13:59:07.749Z,10.95
2019-04-28T14:01:31.724Z,6.90
2019-04-28T14:03:58.751Z,8.35
2019-04-28T14:06:07.150Z,7.20
2019-04-28T14:08:12.168Z,7.17
2019-04-28T14:10:17.200Z,8.25
2019-04-28T14:12:22.221Z,8.40
2019-04-28T14:14:27.265Z,8.58
2019-04-28T14:16:32.288Z,7.25
2019-04-28T14:18:37.327Z,9.38
2019-04-28T14:20:42.474Z,7.92
2019-04-28T14:22:47.470Z,8.55
2019-04-28T14:24:52.551Z,8.20
2019-04-28T14:26:57.623Z,7.80
2019-04-28T14:29:02.636Z,6.75
2019-04-28T14:31:07.668Z,7.40
2019-04-28T14:33:12.762Z,6.90
2019-04-28T14:35:17.771Z,9.15
2019-04-28T14:37:22.910Z,6.95
2019-04-28T14:39:28.034Z,6.95
2019-04-28T14:41:33.085Z,8.38
2019-04-28T14:43:38.409Z,7.62
2019-04-28T14:45:43.518Z,5.70
2019-04-28T14:47:49.620Z,7.03
2019-04-28T14:49:54.676Z,6.62
2019-04-28T14:52:00.752Z,8.45
2019-04-28T14:54:05.851Z,6.37
2019-04-28T14:56:10.947Z,6.58
2019-04-28T14:58:16.086Z,8.18
2019-04-28T15:00:25.644Z,7.22
2019-04-28T15:02:38.720Z,5.78
2019-04-28T15:05:01.567Z,5.60
2019-04-28T15:07:12.236Z,5.60
2019-04-28T15:09:42.353Z,6.72
2019-04-28T15:11:57.222Z,7.60
2019-04-28T15:14:02.316Z,5.67
2019-04-28T15:16:07.385Z,6.55
2019-04-28T15:18:12.458Z,6.72
2019-04-28T15:20:17.506Z,5.58
2019-04-28T15:22:22.615Z,7.17
2019-04-28T15:24:27.667Z,5.20
2019-04-28T15:26:33.822Z,5.03
2019-04-28T15:28:38.908Z,6.12
2019-04-28T15:30:43.961Z,5.37
2019-04-28T15:32:48.979Z,5.95
2019-04-28T15:34:54.026Z,5.75
2019-04-28T15:37:09.495Z,6.75
2019-04-28T15:39:09.222Z,6.22
2019-04-28T15:41:21.340Z,5.33
2019-04-28T15:43:21.202Z,5.35
2019-04-28T15:45:26.251Z,4.47
2019-04-28T15:47:31.356Z,4.25
2019-04-28T15:49:36.372Z,5.05
2019-04-28T15:51:41.413Z,4.30
2019-04-28T15:53:49.082Z,4.47
2019-04-28T15:56:08.512Z,6.85
2019-04-28T15:58:36.730Z,5.20
2019-04-28T16:00:41.883Z,4.60
2019-04-28T16:02:46.973Z,4.58
2019-04-28T16:04:53.102Z,4.20
2019-04-28T16:06:58.200Z,3.92
2019-04-28T16:09:05.000Z,4.85
2019-04-28T16:11:10.632Z,5.05
2019-04-28T16:13:15.767Z,4.67
2019-04-28T16:15:20.798Z,4.12
2019-04-28T16:17:25.832Z,6.62
2019-04-28T16:19:30.843Z,4.72
2019-04-28T16:21:36.251Z,3.40
2019-04-28T16:23:41.271Z,3.52
2019-04-28T16:25:46.310Z,4.37
2019-04-28T16:27:51.349Z,4.53
2019-04-28T16:29:56.388Z,4.35
2019-04-28T16:32:01.439Z,4.22
2019-04-28T16:34:06.542Z,4.53
2019-04-28T16:36:11.584Z,3.65
2019-04-28T16:38:16.651Z,3.33
2019-04-28T16:40:22.960Z,3.58
2019-04-28T16:42:30.652Z,3.60
2019-04-28T16:44:44.757Z,3.98
2019-04-28T16:46:49.772Z,3.77
2019-04-28T16:48:54.810Z,3.72
2019-04-28T16:50:59.827Z,3.47
2019-04-28T16:53:04.866Z,2.95
2019-04-28T16:55:20.266Z,3.40
2019-04-28T16:57:33.558Z,3.55
2019-04-28T17:00:01.458Z,3.08
2019-04-28T17:02:13.008Z,3.33
2019-04-28T17:04:18.119Z,3.05
2019-04-28T17:06:23.194Z,3.70
2019-04-28T17:08:29.426Z,3.50
2019-04-28T17:10:34.835Z,3.42
2019-04-28T17:12:39.903Z,3.27
2019-04-28T17:14:45.011Z,4.80
2019-04-28T17:16:50.024Z,3.08
2019-04-28T17:18:55.063Z,3.75
2019-04-28T17:21:00.110Z,3.05
2019-04-28T17:23:05.162Z,4.47
2019-04-28T17:25:10.329Z,3.10
2019-04-28T17:27:15.438Z,3.00
2019-04-28T17:29:20.570Z,3.35
2019-04-28T17:31:25.734Z,2.80
2019-04-28T17:33:30.792Z,3.77
2019-04-28T17:35:35.931Z,3.20
2019-04-28T17:37:40.988Z,2.95
2019-04-28T17:39:46.252Z,3.08
2019-04-28T17:41:51.472Z,2.92
2019-04-28T17:43:56.513Z,3.17
2019-04-28T17:46:01.877Z,3.22
2019-04-28T17:48:27.690Z,2.80
2019-04-28T17:50:33.154Z,3.25
2019-04-28T17:52:38.191Z,2.72
2019-04-28T17:54:43.218Z,2.95
2019-04-28T17:56:48.335Z,3.08
2019-04-28T17:58:53.432Z,2.90
2019-04-28T18:01:18.457Z,2.05
2019-04-28T18:03:30.764Z,3.05
2019-04-28T18:05:42.968Z,2.98
2019-04-28T18:07:49.840Z,2.37
2019-04-28T18:09:54.977Z,2.67
2019-04-28T18:12:00.019Z,2.65
2019-04-28T18:14:05.064Z,2.65
2019-04-28T18:16:32.257Z,2.80
2019-04-28T18:18:43.349Z,2.50
2019-04-28T18:20:48.396Z,2.67
2019-04-28T18:22:53.484Z,2.60
2019-04-28T18:24:58.590Z,2.58
2019-04-28T18:27:03.624Z,3.17
2019-04-28T18:29:08.646Z,2.50
2019-04-28T18:31:51.029Z,2.50
2019-04-28T18:34:13.735Z,2.60
2019-04-28T18:36:25.528Z,2.62
2019-04-28T18:38:49.566Z,2.35
2019-04-28T18:41:03.415Z,2.30
2019-04-28T18:43:33.315Z,2.37
2019-04-28T18:45:38.340Z,2.70
2019-04-28T18:47:43.396Z,2.40
2019-04-28T18:49:48.436Z,2.40
2019-04-28T18:51:53.599Z,2.60
2019-04-28T18:53:58.639Z,2.02
2019-04-28T18:56:03.681Z,2.05
2019-04-28T18:58:09.175Z,2.40
2019-04-28T19:00:14.316Z,2.00
2019-04-28T19:02:38.393Z,2.30
2019-04-28T19:04:43.407Z,2.55
2019-04-28T19:06:48.463Z,2.58
2019-04-28T19:09:01.379Z,2.37
2019-04-28T19:11:29.093Z,3.15
2019-04-28T19:13:37.262Z,1.98
2019-04-28T19:16:10.642Z,2.33
2019-04-28T19:18:21.889Z,1.98
2019-04-28T19:20:26.951Z,2.42
2019-04-28T19:22:35.506Z,1.85
2019-04-28T19:24:40.650Z,2.08
2019-04-28T19:26:45.732Z,1.98
2019-04-28T19:28:50.792Z,2.02
2019-04-28T19:30:55.922Z,2.00
2019-04-28T19:33:01.437Z,1.55
2019-04-28T19:35:07.567Z,2.10
2019-04-28T19:37:12.779Z,1.80
2019-04-28T19:39:17.888Z,1.80
2019-04-28T19:41:24.581Z,1.70
2019-04-28T19:43:29.615Z,1.70
2019-04-28T19:45:36.641Z,1.80
2019-04-28T19:47:41.740Z,1.92
2019-04-28T19:49:46.883Z,1.95
2019-04-28T19:51:53.225Z,2.20
2019-04-28T19:53:58.870Z,2.25
2019-04-28T19:56:12.397Z,2.17
2019-04-28T19:58:23.876Z,1.95
2019-04-28T20:00:42.407Z,1.65
2019-04-28T20:02:49.051Z,2.30
2019-04-28T20:04:54.307Z,1.90
2019-04-28T20:06:59.327Z,2.12
2019-04-28T20:09:05.928Z,1.82
2019-04-28T20:11:12.610Z,2.08
2019-04-28T20:13:17.757Z,1.75
2019-04-28T20:15:22.817Z,2.20
2019-04-28T20:17:27.985Z,2.10
2019-04-28T20:19:33.557Z,1.90
2019-04-28T20:21:38.691Z,1.80
2019-04-28T20:23:43.823Z,2.00
2019-04-28T20:25:49.180Z,1.80
2019-04-28T20:27:54.315Z,1.60
2019-04-28T20:29:59.420Z,2.05
2019-04-28T20:32:04.451Z,1.60
2019-04-28T20:34:09.664Z,2.10
2019-04-28T20:36:42.713Z,2.02
2019-04-28T20:38:49.585Z,1.72
2019-04-28T20:41:01.477Z,2.00
2019-04-28T20:43:12.576Z,2.02
2019-04-28T20:45:17.613Z,2.05
2019-04-28T20:47:23.710Z,2.00
2019-04-28T20:49:28.824Z,2.17
2019-04-28T20:51:33.860Z,2.40
2019-04-28T20:53:38.877Z,2.33
2019-04-28T20:55:43.915Z,1.80
2019-04-28T20:57:48.947Z,2.33
2019-04-28T20:59:54.004Z,2.20
2019-04-28T21:01:59.035Z,2.17
2019-04-28T21:04:04.343Z,2.08
2019-04-28T21:06:09.480Z,2.30
2019-04-28T21:08:14.570Z,2.20
2019-04-28T21:10:19.608Z,2.55
2019-04-28T21:12:25.000Z,2.22
2019-04-28T21:14:30.043Z,2.35
2019-04-28T21:16:35.051Z,2.10
2019-04-28T21:18:40.091Z,2.85
2019-04-28T21:20:45.208Z,2.37
2019-04-28T21:22:50.264Z,2.55
2019-04-28T21:24:55.398Z,2.50
2019-04-28T21:27:01.441Z,2.47
2019-04-28T21:29:06.667Z,2.50
2019-04-28T21:31:11.684Z,2.90
2019-04-28T21:33:16.796Z,3.17
2019-04-28T21:35:21.810Z,2.83
2019-04-28T21:37:26.857Z,2.83
2019-04-28T21:39:31.876Z,2.75
2019-04-28T21:41:36.946Z,3.00
2019-04-28T21:43:57.070Z,2.67
2019-04-28T21:46:23.965Z,3.33
2019-04-28T21:48:50.727Z,2.87
2019-04-28T21:50:55.840Z,2.92
2019-04-28T21:53:01.969Z,3.37
2019-04-28T21:55:08.920Z,3.65
2019-04-28T21:57:13.983Z,3.65
2019-04-28T21:59:19.112Z,3.20
2019-04-28T22:01:24.313Z,3.45
2019-04-28T22:03:29.663Z,3.37
2019-04-28T22:05:34.702Z,3.52
2019-04-28T22:07:39.739Z,3.50
2019-04-28T22:09:44.799Z,4.33
2019-04-28T22:11:51.455Z,3.85
2019-04-28T22:13:56.478Z,3.70
2019-04-28T22:16:01.514Z,3.80
2019-04-28T22:18:06.603Z,4.33
2019-04-28T22:20:11.739Z,3.98
2019-04-28T22:22:16.786Z,3.80
2019-04-28T22:24:33.082Z,5.12
2019-04-28T22:27:03.139Z,4.53
2019-04-28T22:29:08.187Z,5.85
2019-04-28T22:31:13.272Z,4.42
2019-04-28T22:33:18.332Z,4.30
2019-04-28T22:35:23.788Z,5.25
2019-04-28T22:37:28.912Z,5.40
2019-04-28T22:39:33.971Z,4.62
2019-04-28T22:41:40.629Z,5.22
2019-04-28T22:43:45.663Z,4.90
2019-04-28T22:45:50.689Z,6.33
2019-04-28T22:47:55.718Z,5.72
2019-04-28T22:50:00.739Z,7.28
2019-04-28T22:52:07.247Z,4.95
2019-04-28T22:54:18.008Z,4.47
2019-04-28T22:56:38.366Z,6.00
2019-04-28T22:58:56.537Z,4.40
2019-04-28T23:01:20.513Z,5.45
2019-04-28T23:03:47.492Z,4.67
2019-04-28T23:05:52.899Z,6.42
2019-04-28T23:07:57.920Z,6.12
2019-04-28T23:10:03.006Z,5.60
2019-04-28T23:12:10.405Z,4.78
2019-04-28T23:14:15.523Z,5.12
2019-04-28T23:16:20.567Z,6.58
2019-04-28T23:18:26.806Z,6.97
2019-04-28T23:20:34.145Z,5.90
2019-04-28T23:22:47.425Z,6.72
2019-04-28T23:24:53.607Z,7.33
2019-04-28T23:26:58.628Z,6.72
2019-04-28T23:29:03.673Z,7.65
2019-04-28T23:31:08.690Z,6.80
2019-04-28T23:33:14.153Z,7.15
2019-04-28T23:35:19.175Z,8.13
2019-04-28T23:37:24.211Z,8.88
2019-04-28T23:39:29.280Z,10.58
2019-04-28T23:41:42.421Z,8.95
2019-04-28T23:43:47.466Z,8.45
2019-04-28T23:45:52.529Z,10.13
2019-04-28T23:47:57.631Z,8.93
2019-04-28T23:50:02.679Z,10.50
2019-04-28T23:52:26.632Z,9.13
2019-04-28T23:54:31.691Z,9.78
2019-04-28T23:56:36.768Z,8.25
2019-04-28T23:58:41.808Z,8.50
